createdAt,value
2018-01-14T00:04:19.531Z,31.10
2018-01-14T00:09:20.547Z,31.10
2018-01-14T00:14:21.583Z,25.23
2018-01-14T00:19:22.619Z,32.00
2018-01-14T00:24:23.618Z,30.50
2018-01-14T00:29:24.844Z,32.23
2018-01-14T00:34:26.616Z,27.27
2018-01-14T00:39:28.046Z,31.10
2018-01-14T00:44:29.830Z,29.40
2018-01-14T00:49:31.083Z,33.40
2018-01-14T00:54:32.098Z,32.97
2018-01-14T00:59:33.115Z,33.60
2018-01-14T01:04:34.854Z,33.27
2018-01-14T01:09:35.894Z,34.63
2018-01-14T01:14:37.872Z,29.90
2018-01-14T01:19:38.891Z,34.33
2018-01-14T01:24:40.875Z,33.47
2018-01-14T01:29:41.886Z,30.43
2018-01-14T01:34:43.131Z,31.70
2018-01-14T01:39:44.131Z,30.47
2018-01-14T01:44:45.416Z,38.70
2018-01-14T01:49:46.432Z,36.40
2018-01-14T01:54:47.462Z,38.80
2018-01-14T01:59:48.651Z,48.13
2018-01-14T02:04:49.719Z,36.57
2018-01-14T02:09:50.959Z,34.13
2018-01-14T02:14:52.703Z,41.13
2018-01-14T02:19:53.710Z,43.20
2018-01-14T02:24:54.704Z,30.90
2018-01-14T02:29:55.698Z,42.00
2018-01-14T02:34:56.966Z,41.90
2018-01-14T02:39:57.963Z,35.37
2018-01-14T02:44:59.134Z,29.77
2018-01-14T02:50:00.138Z,41.80
2018-01-14T02:55:01.151Z,34.97
2018-01-14T03:00:02.387Z,33.50
2018-01-14T03:05:03.403Z,41.00
2018-01-14T03:10:05.155Z,36.27
2018-01-14T03:15:06.158Z,38.17
2018-01-14T03:20:07.177Z,32.23
2018-01-14T03:25:09.143Z,40.63
2018-01-14T03:30:10.151Z,42.53
2018-01-14T03:35:11.898Z,43.83
2018-01-14T03:40:13.111Z,44.70
2018-01-14T03:45:14.106Z,35.17
2018-01-14T03:50:15.378Z,51.13
2018-01-14T03:55:16.439Z,39.73
2018-01-14T04:00:17.471Z,39.10
2018-01-14T04:05:18.480Z,47.90
2018-01-14T04:10:19.470Z,50.30
2018-01-14T04:15:20.485Z,45.80
2018-01-14T04:20:21.482Z,52.93
2018-01-14T04:25:22.767Z,52.80
2018-01-14T04:30:23.786Z,52.27
2018-01-14T04:35:25.526Z,47.33
2018-01-14T04:40:26.747Z,42.97
2018-01-14T04:45:27.748Z,49.43
2018-01-14T04:50:28.739Z,50.20
2018-01-14T04:55:30.711Z,46.67
2018-01-14T05:00:31.717Z,55.37
2018-01-14T05:05:33.465Z,38.57
2018-01-14T05:10:34.603Z,44.53
2018-01-14T05:15:35.598Z,57.77
2018-01-14T05:20:37.567Z,40.27
2018-01-14T05:25:38.566Z,38.67
2018-01-14T05:30:39.558Z,56.20
2018-01-14T05:35:41.325Z,41.67
2018-01-14T05:40:42.456Z,58.40
2018-01-14T05:45:44.418Z,47.03
2018-01-14T05:50:45.418Z,50.50
2018-01-14T05:55:46.733Z,55.33
2018-01-14T06:00:47.827Z,44.83
2018-01-14T06:05:48.982Z,47.87
2018-01-14T06:10:49.988Z,49.67
2018-01-14T06:15:51.723Z,46.40
2018-01-14T06:20:52.939Z,44.20
2018-01-14T06:25:53.966Z,50.40
2018-01-14T06:30:54.954Z,49.17
2018-01-14T06:35:56.182Z,49.77
2018-01-14T06:40:57.186Z,44.87
2018-01-14T06:45:58.191Z,47.13
2018-01-14T06:50:59.935Z,46.50
2018-01-14T06:56:00.942Z,51.13
2018-01-14T07:01:02.124Z,44.67
2018-01-14T07:06:03.132Z,44.33
2018-01-14T07:11:04.159Z,40.53
2018-01-14T07:16:05.884Z,40.87
2018-01-14T07:21:06.899Z,50.63
2018-01-14T07:26:08.631Z,39.03
2018-01-14T07:31:09.634Z,43.73
2018-01-14T07:36:10.671Z,40.80
2018-01-14T07:41:12.419Z,41.37
2018-01-14T07:46:13.419Z,43.90
2018-01-14T07:51:14.418Z,45.87
2018-01-14T07:56:15.436Z,40.70
2018-01-14T08:01:16.458Z,31.20
2018-01-14T08:06:17.466Z,47.30
2018-01-14T08:11:18.466Z,43.70
2018-01-14T08:16:20.222Z,46.27
2018-01-14T08:21:21.414Z,38.23
2018-01-14T08:26:22.439Z,44.37
2018-01-14T08:31:24.402Z,37.13
2018-01-14T08:36:25.405Z,33.80
2018-01-14T08:41:26.424Z,33.47
2018-01-14T08:46:27.437Z,35.30
2018-01-14T08:51:28.646Z,34.17
2018-01-14T08:56:29.662Z,37.03
2018-01-14T09:01:37.637Z,33.63
2018-01-14T09:06:38.638Z,42.93
2018-01-14T09:11:39.846Z,35.40
2018-01-14T09:16:40.859Z,35.20
2018-01-14T09:21:42.611Z,39.77
2018-01-14T09:26:44.066Z,37.37
2018-01-14T09:31:45.079Z,34.27
2018-01-14T09:36:46.082Z,32.17
2018-01-14T09:41:47.102Z,30.60
2018-01-14T09:46:48.879Z,30.80
2018-01-14T09:51:50.662Z,28.67
2018-01-14T09:56:51.955Z,32.27
2018-01-14T10:01:52.951Z,35.00
2018-01-14T10:06:53.979Z,26.73
2018-01-14T10:11:54.974Z,28.90
2018-01-14T10:16:56.022Z,26.13
2018-01-14T10:21:57.042Z,20.20
2018-01-14T10:26:58.146Z,23.70
2018-01-14T10:31:59.334Z,25.90
2018-01-14T10:37:00.555Z,21.90
2018-01-14T10:42:02.326Z,18.70
2018-01-14T10:47:03.420Z,19.80
2018-01-14T10:52:04.576Z,21.33
2018-01-14T11:02:12.683Z,18.63
2018-01-14T11:07:13.766Z,15.23
2018-01-14T11:12:14.896Z,17.67
2018-01-14T11:17:16.062Z,16.10
2018-01-14T11:22:17.136Z,19.33
2018-01-14T11:27:18.215Z,18.03
2018-01-14T11:32:26.995Z,16.90
2018-01-14T11:37:28.088Z,16.80
2018-01-14T11:42:29.245Z,16.07
2018-01-14T11:47:30.488Z,18.17
2018-01-14T11:52:31.688Z,18.33
2018-01-14T11:57:33.605Z,19.37
2018-01-14T12:02:34.778Z,18.23
2018-01-14T12:07:35.949Z,16.77
2018-01-14T12:12:37.098Z,15.30
2018-01-14T12:17:38.195Z,15.10
2018-01-14T12:22:39.319Z,17.27
2018-01-14T12:27:40.528Z,15.40
2018-01-14T12:32:53.968Z,15.10
2018-01-14T12:37:55.158Z,18.00
2018-01-14T12:42:56.486Z,17.43
2018-01-14T12:47:57.878Z,13.10
2018-01-14T12:52:59.037Z,14.70
2018-01-14T12:58:00.359Z,15.13
2018-01-14T13:03:01.485Z,14.80
2018-01-14T13:08:03.487Z,12.80
2018-01-14T13:13:04.487Z,15.40
2018-01-14T13:18:05.488Z,16.20
2018-01-14T13:23:07.227Z,17.10
2018-01-14T13:28:08.222Z,16.27
2018-01-14T13:33:09.406Z,17.63
2018-01-14T13:38:10.432Z,17.37
2018-01-14T13:43:12.270Z,19.60
2018-01-14T13:48:13.654Z,18.50
2018-01-14T13:53:14.804Z,18.83
2018-01-14T13:58:16.298Z,20.90
2018-01-14T14:03:17.529Z,18.33
2018-01-14T14:08:18.742Z,19.33
2018-01-14T14:13:19.747Z,20.97
2018-01-14T14:18:20.745Z,21.90
2018-01-14T14:23:22.747Z,21.30
2018-01-14T14:28:24.601Z,22.03
2018-01-14T14:33:25.718Z,23.77
2018-01-14T14:38:27.875Z,18.67
2018-01-14T14:43:29.279Z,21.00
2018-01-14T14:48:30.592Z,20.90
2018-01-14T14:53:31.634Z,17.60
2018-01-14T14:58:32.748Z,20.97
2018-01-14T15:03:33.948Z,18.53
2018-01-14T15:08:35.253Z,21.23
2018-01-14T15:13:36.506Z,20.80
2018-01-14T15:18:37.628Z,16.43
2018-01-14T15:23:39.618Z,18.43
2018-01-14T15:28:40.639Z,25.73
2018-01-14T15:33:42.606Z,21.03
2018-01-14T15:38:44.382Z,27.97
2018-01-14T15:43:45.371Z,19.00
2018-01-14T15:48:46.574Z,116.03
2018-01-14T15:53:47.570Z,26.53
2018-01-14T15:58:48.746Z,23.17
2018-01-14T16:03:49.754Z,26.93
2018-01-14T16:08:51.742Z,25.23
2018-01-14T16:13:52.746Z,22.67
2018-01-14T16:18:54.497Z,34.07
2018-01-14T16:23:55.509Z,27.57
2018-01-14T16:28:56.891Z,27.70
2018-01-14T16:33:57.902Z,25.73
2018-01-14T16:38:59.651Z,27.27
2018-01-14T16:44:00.671Z,50.00
2018-01-14T16:49:01.951Z,32.00
2018-01-14T16:54:02.962Z,30.93
2018-01-14T16:59:04.823Z,31.63
2018-01-14T17:04:06.023Z,38.90
2018-01-14T17:09:07.040Z,51.70
2018-01-14T17:14:08.865Z,37.97
2018-01-14T17:19:09.874Z,35.50
2018-01-14T17:24:11.170Z,38.17
2018-01-14T17:29:12.205Z,35.30
2018-01-14T17:34:13.947Z,29.53
2018-01-14T17:39:14.960Z,27.80
2018-01-14T17:44:16.066Z,33.93
2018-01-14T17:49:17.190Z,27.23
2018-01-14T17:54:18.487Z,30.30
2018-01-14T17:59:19.597Z,31.30
2018-01-14T18:04:20.928Z,28.90
2018-01-14T18:09:21.966Z,26.80
2018-01-14T18:14:23.107Z,35.30
2018-01-14T18:19:24.401Z,36.20
2018-01-14T18:24:25.611Z,35.70
2018-01-14T18:29:26.859Z,37.53
2018-01-14T18:34:28.212Z,27.07
2018-01-14T18:39:30.119Z,34.00
2018-01-14T18:44:31.195Z,28.40
2018-01-14T18:49:32.370Z,29.77
2018-01-14T18:54:33.498Z,32.20
2018-01-14T18:59:34.792Z,29.47
2018-01-14T19:04:35.981Z,40.10
2018-01-14T19:09:37.416Z,32.63
2018-01-14T19:14:39.578Z,34.27
2018-01-14T19:19:41.190Z,28.43
2018-01-14T19:24:42.401Z,28.80
2018-01-14T19:29:43.621Z,31.20
2018-01-14T19:34:44.712Z,43.73
2018-01-14T19:39:46.813Z,27.73
2018-01-14T19:44:48.699Z,29.77
2018-01-14T19:49:49.807Z,32.37
2018-01-14T19:54:53.326Z,30.93
2018-01-14T19:59:55.535Z,29.17
2018-01-14T20:04:56.593Z,31.70
2018-01-14T20:09:57.940Z,27.93
2018-01-14T20:14:58.968Z,28.67
